Time;durP1;ratioP1;P1;durP2;ratioP2;P2;SDS_P1;SDS_P2;PMS_P1;PMS_P2;Temp;Humidity;BMP_temperature;BMP_pressure;BME280_temperature;BME280_humidity;BME280_pressure;Samples;Min_cycle;Max_cycle;Signal;HPM_P1;HPM_P2
2022/06/24 00:00:35;;;;;;;473.17;432.53;;;22.20;71.60;;;;;;5047142;28;20200;-67
2022/06/24 00:03:01;;;;;;;478.97;440.40;;;22.20;71.70;;;;;;5043722;28;20041;-67
2022/06/24 00:05:30;;;;;;;546.93;501.43;;;22.20;71.60;;;;;;5047423;28;20626;-67
2022/06/24 00:07:57;;;;;;;454.43;414.07;;;22.20;71.40;;;;;;5047017;28;20656;-67
2022/06/24 00:10:37;;;;;;;473.43;432.17;;;22.20;71.50;;;;;;5031099;28;20049;-67
2022/06/24 00:13:06;;;;;;;590.63;537.17;;;22.10;71.40;;;;;;5041385;28;20461;-67
2022/06/24 00:15:34;;;;;;;463.53;423.87;;;22.10;71.80;;;;;;5009971;28;20048;-67
2022/06/24 00:18:13;;;;;;;559.73;507.20;;;22.00;71.70;;;;;;5038909;28;20121;-67
2022/06/24 00:20:47;;;;;;;515.43;468.30;;;22.00;72.00;;;;;;5038896;28;20033;-67
2022/06/24 00:23:16;;;;;;;461.33;421.23;;;21.90;71.90;;;;;;5045755;28;20053;-67
2022/06/24 00:25:43;;;;;;;470.10;425.97;;;21.90;71.90;;;;;;5044900;28;20492;-67
2022/06/24 00:28:10;;;;;;;443.23;404.30;;;21.90;72.00;;;;;;5047554;28;20083;-67
2022/06/24 00:30:38;;;;;;;428.87;389.73;;;21.90;72.00;;;;;;5030346;28;20049;-67
2022/06/24 00:33:13;;;;;;;436.33;399.17;;;21.90;72.20;;;;;;5047074;28;20045;-67
2022/06/24 00:35:41;;;;;;;527.00;479.55;;;21.90;72.20;;;;;;5046276;28;20029;-67
2022/06/24 00:38:27;;;;;;;491.53;449.13;;;21.90;72.10;;;;;;5046501;28;20067;-67
2022/06/24 00:40:54;;;;;;;509.77;466.87;;;21.90;72.30;;;;;;5059579;28;20492;-67
2022/06/24 00:43:42;;;;;;;462.30;417.40;;;21.80;72.00;;;;;;5046262;28;20089;-67
2022/06/24 00:46:19;;;;;;;478.63;433.40;;;21.80;72.00;;;;;;5046300;28;20048;-67
2022/06/24 00:48:56;;;;;;;581.90;527.87;;;21.80;72.10;;;;;;5047032;28;20459;-67
2022/06/24 00:51:23;;;;;;;521.80;469.20;;;21.70;72.30;;;;;;5045660;28;20497;-66
2022/06/24 00:53:52;;;;;;;530.10;482.47;;;21.70;72.20;;;;;;5046005;28;20155;-67
2022/06/24 00:56:20;;;;;;;554.87;505.57;;;21.60;72.20;;;;;;5046756;28;20142;-67
2022/06/24 00:59:06;;;;;;;556.97;505.83;;;21.60;72.40;;;;;;5046902;28;20021;-67
2022/06/24 01:01:37;;;;;;;478.40;436.73;;;21.50;72.60;;;;;;5037960;28;20115;-67
2022/06/24 01:04:07;;;;;;;609.40;554.07;;;21.50;72.80;;;;;;5024862;28;20044;-67
2022/06/24 01:06:34;;;;;;;496.97;449.47;;;21.50;73.00;;;;;;5046838;28;20052;-66
2022/06/24 01:09:00;;;;;;;563.63;509.03;;;21.40;73.00;;;;;;5044837;28;20060;-67
2022/06/24 01:11:33;;;;;;;441.43;403.43;;;21.30;73.80;;;;;;5030164;28;20032;-67
2022/06/24 01:13:59;;;;;;;492.07;450.00;;;21.30;74.00;;;;;;5042002;28;20155;-67
2022/06/24 01:16:26;;;;;;;491.47;450.57;;;21.20;74.20;;;;;;5028570;28;20072;-67
2022/06/24 01:18:52;;;;;;;411.80;379.50;;;21.10;74.10;;;;;;5062586;28;20037;-67
2022/06/24 01:21:41;;;;;;;498.80;460.80;;;21.00;74.40;;;;;;5047121;28;20033;-67
2022/06/24 01:24:12;;;;;;;383.57;355.60;;;20.90;75.80;;;;;;5045674;28;20048;-67
2022/06/24 01:26:40;;;;;;;430.43;397.07;;;20.80;75.60;;;;;;5029416;28;20485;-67
2022/06/24 01:29:06;;;;;;;416.63;387.73;;;20.70;75.90;;;;;;5045756;28;20543;-67
2022/06/24 01:31:33;;;;;;;447.77;412.40;;;20.70;76.00;;;;;;5045321;28;20041;-67
2022/06/24 01:33:59;;;;;;;393.20;365.60;;;20.60;76.20;;;;;;5045524;28;20375;-67
2022/06/24 01:36:25;;;;;;;447.93;416.00;;;20.60;76.40;;;;;;5028273;28;20119;-67
2022/06/24 01:38:51;;;;;;;332.43;310.47;;;20.60;76.60;;;;;;5045184;28;20076;-66
2022/06/24 01:41:17;;;;;;;375.10;348.63;;;20.60;76.70;;;;;;5030377;28;20039;-67
2022/06/24 01:43:43;;;;;;;303.57;284.73;;;20.70;76.70;;;;;;5045084;28;20366;-67
2022/06/24 01:46:11;;;;;;;309.33;288.73;;;20.70;76.40;;;;;;5046613;28;20135;-67
2022/06/24 01:48:37;;;;;;;271.83;255.33;;;20.70;77.70;;;;;;5045810;28;20059;-67
2022/06/24 01:51:04;;;;;;;296.27;278.43;;;20.70;77.90;;;;;;5045720;28;20036;-67
2022/06/24 01:53:29;;;;;;;296.17;276.23;;;20.60;78.00;;;;;;5027974;28;20310;-67
2022/06/24 01:55:55;;;;;;;322.37;299.17;;;20.50;77.90;;;;;;5028225;28;20037;-67
2022/06/24 01:58:21;;;;;;;245.93;230.50;;;20.50;77.70;;;;;;5013097;28;20037;-67
2022/06/24 02:00:46;;;;;;;367.00;343.40;;;20.50;77.40;;;;;;5044771;28;20520;-67
2022/06/24 02:03:12;;;;;;;407.00;376.57;;;20.50;77.50;;;;;;5028505;28;20045;-67
2022/06/24 02:05:39;;;;;;;254.50;239.43;;;20.50;77.30;;;;;;5023192;28;20033;-67
2022/06/24 02:08:05;;;;;;;271.50;250.43;;;20.50;77.40;;;;;;5044096;28;20914;-67
2022/06/24 02:13:27;;;;;;;294.77;270.27;;;20.50;77.00;;;;;;5042729;28;20508;-67
2022/06/24 02:15:58;;;;;;;328.63;308.47;;;20.50;76.70;;;;;;5014061;28;20044;-67
2022/06/24 02:18:26;;;;;;;379.83;351.10;;;20.50;76.90;;;;;;5045158;28;20079;-67
2022/06/24 02:20:52;;;;;;;471.07;437.67;;;20.40;76.80;;;;;;5039887;28;20434;-67
2022/06/24 02:23:18;;;;;;;336.77;311.83;;;20.40;77.00;;;;;;5041396;28;20049;-67
2022/06/24 02:25:45;;;;;;;428.57;396.27;;;20.40;77.40;;;;;;5028267;28;20049;-67
2022/06/24 02:28:11;;;;;;;358.30;331.63;;;20.40;77.30;;;;;;5045482;28;20367;-67
2022/06/24 02:30:38;;;;;;;353.63;325.57;;;20.40;77.40;;;;;;5043768;28;20033;-67
2022/06/24 02:33:04;;;;;;;389.27;361.37;;;20.40;77.20;;;;;;5036811;28;20091;-67
2022/06/24 02:35:30;;;;;;;483.33;449.77;;;20.40;77.30;;;;;;5042296;28;20041;-67
2022/06/24 02:37:56;;;;;;;391.00;360.93;;;20.40;77.30;;;;;;5028138;28;20041;-67
2022/06/24 02:43:12;;;;;;;280.07;262.70;;;20.40;77.50;;;;;;5030348;28;20501;-67
2022/06/24 02:45:39;;;;;;;302.43;282.70;;;20.40;78.00;;;;;;5028135;28;20755;-67
2022/06/24 02:48:06;;;;;;;327.40;307.33;;;20.40;78.30;;;;;;5044770;28;20572;-67
2022/06/24 02:50:41;;;;;;;262.43;244.80;;;20.40;78.30;;;;;;5044327;28;20040;-67
2022/06/24 02:53:07;;;;;;;227.17;212.97;;;20.40;78.70;;;;;;5041867;28;20064;-67
2022/06/24 02:55:33;;;;;;;286.47;267.60;;;20.40;78.20;;;;;;5044349;28;20123;-67
2022/06/24 02:57:58;;;;;;;200.27;185.23;;;20.40;78.20;;;;;;5044854;28;20041;-67
2022/06/24 03:00:24;;;;;;;313.33;290.83;;;20.30;77.90;;;;;;5039167;28;20041;-67
2022/06/24 03:02:50;;;;;;;344.67;320.73;;;20.30;78.10;;;;;;5017973;28;20041;-67
2022/06/24 03:05:16;;;;;;;306.90;287.07;;;20.30;78.30;;;;;;5042354;28;20413;-67
2022/06/24 03:07:41;;;;;;;258.47;242.50;;;20.40;78.10;;;;;;5027759;28;20122;-67
2022/06/24 03:10:08;;;;;;;346.63;324.63;;;20.40;78.20;;;;;;5043405;28;20136;-67
2022/06/24 03:12:33;;;;;;;333.10;313.23;;;20.40;78.40;;;;;;5043386;28;20059;-67
2022/06/24 03:14:59;;;;;;;332.17;311.33;;;20.40;78.60;;;;;;5027068;28;20481;-67
2022/06/24 03:17:25;;;;;;;297.27;280.00;;;20.40;78.50;;;;;;5041317;28;20033;-67
2022/06/24 03:19:50;;;;;;;307.67;288.20;;;20.40;78.60;;;;;;5027377;28;20037;-67
2022/06/24 03:22:16;;;;;;;250.43;235.80;;;20.40;79.90;;;;;;5042946;28;20548;-67
2022/06/24 03:24:42;;;;;;;367.13;344.50;;;20.30;80.10;;;;;;5043225;28;20197;-67
2022/06/24 03:27:07;;;;;;;265.73;249.10;;;20.30;79.90;;;;;;5042995;28;20045;-67
2022/06/24 03:29:33;;;;;;;321.00;300.80;;;20.40;79.20;;;;;;5044118;28;20056;-67
2022/06/24 03:31:59;;;;;;;272.57;255.57;;;20.60;77.70;;;;;;5026771;28;20495;-67
2022/06/24 03:34:24;;;;;;;282.60;263.37;;;20.70;78.00;;;;;;5010622;28;20048;-67
2022/06/24 03:36:50;;;;;;;307.60;290.23;;;20.70;78.70;;;;;;5027429;28;20044;-67
2022/06/24 03:39:17;;;;;;;243.83;229.50;;;20.70;79.40;;;;;;5043813;28;20455;-66
2022/06/24 03:41:42;;;;;;;240.97;226.87;;;20.70;79.00;;;;;;5043355;28;20049;-66
2022/06/24 03:44:08;;;;;;;236.17;221.83;;;20.80;78.80;;;;;;5044685;28;20284;-67
2022/06/24 03:46:34;;;;;;;240.13;226.23;;;20.70;79.00;;;;;;5043816;28;20037;-67
2022/06/24 03:48:59;;;;;;;270.00;254.37;;;20.80;79.00;;;;;;5043297;28;20584;-67
2022/06/24 03:51:25;;;;;;;312.40;292.80;;;20.80;79.70;;;;;;5012471;28;20128;-67
2022/06/24 03:53:51;;;;;;;254.60;239.67;;;20.80;80.50;;;;;;5043696;28;20421;-67
2022/06/24 03:56:17;;;;;;;248.20;234.20;;;20.70;80.90;;;;;;5043668;28;20069;-67
2022/06/24 03:58:42;;;;;;;270.83;255.13;;;20.70;81.00;;;;;;5027345;28;20048;-67
2022/06/24 04:01:08;;;;;;;219.53;206.53;;;20.60;80.70;;;;;;5045844;28;20033;-67
2022/06/24 04:03:34;;;;;;;216.63;204.20;;;20.60;80.70;;;;;;5046927;28;20051;-67
2022/06/24 04:05:59;;;;;;;206.47;194.60;;;20.50;80.80;;;;;;5046683;28;20043;-67
2022/06/24 04:08:25;;;;;;;246.13;232.03;;;20.40;81.00;;;;;;5030866;28;20070;-67
2022/06/24 04:10:51;;;;;;;297.50;276.80;;;20.40;81.60;;;;;;5030112;28;20497;-67
2022/06/24 04:13:17;;;;;;;238.13;224.50;;;20.30;82.70;;;;;;5046885;28;20136;-67
2022/06/24 04:15:47;;;;;;;213.80;201.23;;;20.10;82.60;;;;;;5030279;28;20048;-67
2022/06/24 04:18:13;;;;;;;212.07;200.00;;;20.00;83.30;;;;;;5046762;28;20033;-67
2022/06/24 04:20:39;;;;;;;299.50;282.17;;;19.90;83.40;;;;;;5014067;28;20638;-67
2022/06/24 04:23:05;;;;;;;265.30;249.33;;;19.80;84.40;;;;;;5046959;28;20045;-67
2022/06/24 04:25:31;;;;;;;274.93;255.27;;;19.60;84.50;;;;;;5030248;28;20539;-67
2022/06/24 04:27:57;;;;;;;280.37;263.87;;;19.60;84.80;;;;;;5041810;28;20287;-67
2022/06/24 04:30:22;;;;;;;229.10;215.73;;;19.50;85.10;;;;;;5039295;28;20071;-67
2022/06/24 04:32:48;;;;;;;293.23;275.37;;;19.40;85.10;;;;;;5030288;28;20072;-67
2022/06/24 04:35:14;;;;;;;315.50;294.73;;;19.30;85.20;;;;;;5046507;28;20045;-68
2022/06/24 04:37:40;;;;;;;257.63;243.03;;;19.30;85.70;;;;;;5013483;28;20041;-68
2022/06/24 04:40:08;;;;;;;258.03;243.43;;;19.20;86.10;;;;;;5045793;28;20451;-68
2022/06/24 04:42:33;;;;;;;193.00;183.47;;;19.10;86.30;;;;;;5044725;28;20314;-68
2022/06/24 04:44:59;;;;;;;197.40;186.47;;;19.10;86.20;;;;;;5046167;28;20319;-68
2022/06/24 04:47:25;;;;;;;228.50;216.07;;;19.10;86.50;;;;;;5046497;28;20053;-68
2022/06/24 04:49:50;;;;;;;203.07;191.97;;;19.10;87.20;;;;;;5046506;28;20041;-68
2022/06/24 04:52:16;;;;;;;200.20;189.57;;;19.20;87.50;;;;;;5046397;28;20111;-68
2022/06/24 04:54:43;;;;;;;200.53;190.50;;;19.40;87.40;;;;;;5040971;28;20056;-68
2022/06/24 04:57:08;;;;;;;186.70;177.33;;;19.60;86.60;;;;;;5046857;28;20044;-68
2022/06/24 04:59:34;;;;;;;254.33;239.13;;;19.50;86.40;;;;;;5013660;28;20857;-68
2022/06/24 05:02:00;;;;;;;146.63;139.57;;;19.50;86.30;;;;;;5044868;28;20049;-68
2022/06/24 05:04:25;;;;;;;167.77;159.20;;;19.40;86.40;;;;;;5029598;28;20047;-68
2022/06/24 05:06:51;;;;;;;186.57;175.43;;;19.40;86.40;;;;;;5029664;28;20052;-69
2022/06/24 05:09:18;;;;;;;154.70;145.30;;;19.30;87.20;;;;;;5046429;28;20074;-70
2022/06/24 05:11:44;;;;;;;187.10;176.10;;;19.10;88.20;;;;;;5060461;28;20792;-73
2022/06/24 05:14:09;;;;;;;172.20;162.27;;;19.00;89.00;;;;;;5045715;28;20287;-73
2022/06/24 05:16:35;;;;;;;144.37;135.50;;;18.80;89.60;;;;;;4995098;28;20307;-73
2022/06/24 05:19:01;;;;;;;192.03;177.17;;;18.80;90.00;;;;;;5028742;28;20037;-73
2022/06/24 05:21:26;;;;;;;216.80;204.77;;;18.70;90.60;;;;;;5044971;28;20033;-73
2022/06/24 05:23:52;;;;;;;201.97;188.50;;;18.60;91.00;;;;;;5016024;28;20781;-73
2022/06/24 05:26:18;;;;;;;189.50;178.37;;;18.50;91.80;;;;;;5013339;28;20033;-73
2022/06/24 05:28:44;;;;;;;193.27;180.30;;;18.50;92.60;;;;;;5029471;28;20634;-73
2022/06/24 05:31:10;;;;;;;186.77;175.47;;;18.50;93.30;;;;;;5044566;28;20292;-73
2022/06/24 05:33:35;;;;;;;165.67;156.53;;;18.50;94.10;;;;;;5026210;28;20400;-72
2022/06/24 05:36:01;;;;;;;204.93;193.17;;;18.60;94.80;;;;;;5017646;28;20220;-73
2022/06/24 05:38:27;;;;;;;132.27;125.40;;;18.70;95.10;;;;;;5027717;28;20124;-73
2022/06/24 05:40:53;;;;;;;135.90;128.33;;;18.80;94.80;;;;;;5037616;28;20485;-73
2022/06/24 05:43:19;;;;;;;128.50;121.73;;;18.80;95.40;;;;;;5025775;28;20111;-73
2022/06/24 05:45:45;;;;;;;173.90;163.73;;;18.80;95.50;;;;;;5045519;28;20709;-73
2022/06/24 05:48:11;;;;;;;138.83;130.23;;;18.70;95.80;;;;;;5013092;28;20052;-73
2022/06/24 05:50:38;;;;;;;73.30;68.90;;;18.70;96.00;;;;;;5029866;28;20694;-73
2022/06/24 05:55:50;;;;;;;117.83;110.83;;;18.70;96.50;;;;;;5042900;28;20299;-72
2022/06/24 05:58:16;;;;;;;124.13;117.13;;;18.60;96.40;;;;;;5039997;28;20276;-73
2022/06/24 06:00:42;;;;;;;87.60;82.13;;;18.50;96.40;;;;;;5012767;28;20719;-72
2022/06/24 06:03:08;;;;;;;99.70;93.93;;;18.40;96.10;;;;;;5044939;28;20056;-72
2022/06/24 06:05:33;;;;;;;84.10;79.27;;;18.40;96.50;;;;;;5010007;28;20288;-72
2022/06/24 06:07:59;;;;;;;102.73;97.00;;;18.40;96.60;;;;;;4996802;28;20414;-72
2022/06/24 06:10:25;;;;;;;81.03;76.63;;;18.40;96.70;;;;;;5043352;28;20044;-72
2022/06/24 06:12:51;;;;;;;91.03;86.07;;;18.40;96.70;;;;;;5045402;28;20037;-72
2022/06/24 06:15:16;;;;;;;61.50;57.37;;;18.30;97.00;;;;;;5009514;28;20045;-72
2022/06/24 06:17:42;;;;;;;89.70;83.93;;;18.30;97.50;;;;;;5016013;28;20037;-72
2022/06/24 06:20:08;;;;;;;79.37;74.83;;;18.30;97.70;;;;;;5045954;28;20076;-72
2022/06/24 06:22:34;;;;;;;64.87;60.67;;;18.20;97.70;;;;;;5028666;28;20052;-72
2022/06/24 06:24:59;;;;;;;60.80;56.57;;;18.20;97.70;;;;;;5016357;28;20358;-72
2022/06/24 06:27:25;;;;;;;64.70;60.53;;;18.20;98.00;;;;;;5016969;28;20044;-72
2022/06/24 06:29:51;;;;;;;73.37;68.93;;;18.20;98.40;;;;;;5027010;28;20095;-72
2022/06/24 06:32:17;;;;;;;57.60;54.20;;;18.20;98.70;;;;;;5008868;28;20829;-72
2022/06/24 06:34:42;;;;;;;46.63;43.37;;;18.20;99.00;;;;;;5008303;28;20090;-72
2022/06/24 06:37:08;;;;;;;61.80;57.80;;;18.30;99.10;;;;;;5043863;28;20131;-72
2022/06/24 06:39:34;;;;;;;62.87;58.97;;;18.30;99.10;;;;;;5044971;28;20385;-73
2022/06/24 06:41:59;;;;;;;69.73;65.43;;;18.40;99.30;;;;;;5011748;28;20121;-73
2022/06/24 06:44:25;;;;;;;79.07;73.90;;;18.50;99.80;;;;;;5022808;28;20186;-72
2022/06/24 06:46:51;;;;;;;63.93;59.67;;;18.60;99.90;;;;;;5011083;28;20041;-72
2022/06/24 06:49:16;;;;;;;82.63;77.73;;;18.80;99.90;;;;;;5044421;28;20480;-72
2022/06/24 06:51:42;;;;;;;93.60;87.53;;;18.80;99.80;;;;;;5025386;28;20084;-72
2022/06/24 06:54:08;;;;;;;92.80;87.27;;;18.90;99.80;;;;;;5006804;28;20044;-72
2022/06/24 06:56:34;;;;;;;87.10;81.60;;;18.90;99.80;;;;;;5009929;28;20419;-72
2022/06/24 06:58:59;;;;;;;72.37;67.77;;;18.90;99.40;;;;;;5028605;28;20041;-72
2022/06/24 07:01:25;;;;;;;69.80;65.30;;;18.90;99.40;;;;;;5027319;28;20143;-72
2022/06/24 07:03:51;;;;;;;94.73;88.67;;;18.90;99.30;;;;;;5010465;28;20044;-73
2022/06/24 07:06:16;;;;;;;90.83;85.20;;;18.90;99.50;;;;;;5011954;28;20045;-72
2022/06/24 07:08:42;;;;;;;72.03;67.20;;;19.00;99.80;;;;;;4991883;28;20053;-72
2022/06/24 07:11:08;;;;;;;103.27;96.77;;;19.00;99.90;;;;;;5042239;28;20649;-72
2022/06/24 07:13:33;;;;;;;80.53;75.53;;;19.00;99.70;;;;;;5014451;28;20059;-72
2022/06/24 07:15:59;;;;;;;80.97;75.20;;;19.00;99.90;;;;;;5027822;28;20033;-72
2022/06/24 07:18:25;;;;;;;85.73;80.37;;;19.10;99.90;;;;;;5044637;28;20063;-72
2022/06/24 07:20:50;;;;;;;72.23;67.57;;;19.10;99.90;;;;;;5026893;28;20482;-72
2022/06/24 07:23:16;;;;;;;79.40;74.10;;;19.10;99.40;;;;;;5027916;28;20128;-71
2022/06/24 07:25:42;;;;;;;79.17;74.37;;;19.00;99.50;;;;;;5027064;28;20045;-72
2022/06/24 07:28:07;;;;;;;59.10;55.23;;;19.00;99.30;;;;;;5044184;28;20044;-71
2022/06/24 07:30:33;;;;;;;63.67;59.40;;;18.90;99.20;;;;;;5022956;28;20464;-71
2022/06/24 07:32:59;;;;;;;44.20;41.00;;;18.90;99.50;;;;;;5042891;28;20047;-72
2022/06/24 07:35:25;;;;;;;72.53;67.70;;;18.90;99.50;;;;;;5011480;28;20385;-71
2022/06/24 07:37:51;;;;;;;72.67;67.63;;;18.90;99.80;;;;;;5012447;28;20068;-71
2022/06/24 07:40:17;;;;;;;40.07;37.33;;;19.00;99.90;;;;;;5045273;28;20272;-71
2022/06/24 07:42:43;;;;;;;56.47;52.47;;;19.10;99.90;;;;;;5014466;28;20570;-73
2022/06/24 07:45:10;;;;;;;49.47;46.47;;;19.20;99.90;;;;;;5012856;28;20041;-71
2022/06/24 07:47:36;;;;;;;60.80;57.20;;;19.30;99.90;;;;;;5014655;28;20302;-71
2022/06/24 07:50:04;;;;;;;35.27;32.57;;;19.40;99.90;;;;;;5032223;28;20288;-72
2022/06/24 07:52:30;;;;;;;66.73;62.43;;;19.50;99.90;;;;;;5028148;28;20316;-71
2022/06/24 07:57:40;;;;;;;37.77;35.33;;;19.60;99.90;;;;;;5043113;28;20532;-71
2022/06/24 08:00:06;;;;;;;45.37;42.23;;;19.70;99.90;;;;;;5031419;28;20283;-72
2022/06/24 08:02:32;;;;;;;39.27;36.63;;;19.80;99.90;;;;;;5046893;28;20056;-72
2022/06/24 08:04:58;;;;;;;53.10;50.07;;;19.80;99.90;;;;;;5046415;28;20283;-71
2022/06/24 08:07:24;;;;;;;56.37;53.17;;;19.80;99.80;;;;;;5027391;28;20117;-71
2022/06/24 08:09:50;;;;;;;56.80;53.50;;;19.80;99.30;;;;;;5014845;28;20080;-71
2022/06/24 08:12:15;;;;;;;60.83;57.03;;;19.70;98.80;;;;;;5046297;28;20540;-71
2022/06/24 08:14:41;;;;;;;63.60;59.70;;;19.60;98.00;;;;;;5013976;28;20390;-71
2022/06/24 08:17:07;;;;;;;63.63;59.70;;;19.50;97.90;;;;;;5010640;28;20052;-71
2022/06/24 08:19:33;;;;;;;68.47;64.30;;;19.40;97.40;;;;;;5029488;28;20094;-72
2022/06/24 08:21:58;;;;;;;106.73;99.83;;;19.10;96.10;;;;;;5016980;28;20060;-72
2022/06/24 08:24:24;;;;;;;62.50;58.80;;;19.00;95.80;;;;;;5028963;28;20509;-72
2022/06/24 08:26:50;;;;;;;61.30;57.50;;;18.80;95.80;;;;;;5045865;28;20040;-72
2022/06/24 08:29:17;;;;;;;52.77;49.40;;;18.60;95.50;;;;;;5045017;28;20114;-72
2022/06/24 08:31:43;;;;;;;46.63;43.63;;;18.40;96.10;;;;;;5010370;28;20040;-73
2022/06/24 08:34:10;;;;;;;54.90;51.57;;;18.40;96.60;;;;;;5012031;28;20315;-73
2022/06/24 08:36:36;;;;;;;35.67;33.23;;;18.30;97.00;;;;;;4993028;28;20368;-74
2022/06/24 08:39:03;;;;;;;35.23;32.97;;;18.20;97.20;;;;;;5044568;28;20290;-74
2022/06/24 08:41:28;;;;;;;36.60;34.27;;;18.10;96.40;;;;;;5044860;28;20362;-74
2022/06/24 08:43:56;;;;;;;38.20;35.77;;;18.00;96.70;;;;;;5028282;28;20366;-73
2022/06/24 08:46:22;;;;;;;34.83;32.70;;;17.90;97.20;;;;;;5027791;28;20071;-73
2022/06/24 08:48:49;;;;;;;52.03;49.07;;;17.90;97.60;;;;;;5045368;28;20757;-73
2022/06/24 08:51:15;;;;;;;43.57;40.80;;;17.90;98.00;;;;;;5028016;28;20345;-73
2022/06/24 08:53:42;;;;;;;38.63;36.40;;;17.90;98.20;;;;;;5028395;28;20309;-73
2022/06/24 08:56:08;;;;;;;48.67;45.80;;;18.00;98.30;;;;;;5026471;28;20287;-73
2022/06/24 08:58:35;;;;;;;30.10;28.50;;;18.00;98.50;;;;;;5043926;28;20294;-73
2022/06/24 09:01:02;;;;;;;37.97;35.30;;;18.00;98.60;;;;;;5044476;28;20029;-73
2022/06/24 09:03:28;;;;;;;22.17;20.77;;;18.00;99.00;;;;;;5044128;28;20284;-73
2022/06/24 09:05:53;;;;;;;36.50;34.13;;;18.00;99.10;;;;;;5022950;28;20284;-72
2022/06/24 09:08:19;;;;;;;36.00;33.63;;;18.00;99.30;;;;;;5027944;28;20076;-72
2022/06/24 09:13:39;;;;;;;28.73;26.80;;;18.10;99.70;;;;;;5044898;28;20634;-72
2022/06/24 09:16:07;;;;;;;37.75;35.55;;;18.10;99.80;;;;;;5032379;28;20689;-72
2022/06/24 09:18:32;;;;;;;33.93;31.97;;;18.10;99.90;;;;;;5024890;28;20044;-72
2022/06/24 09:20:58;;;;;;;34.90;33.03;;;18.10;99.90;;;;;;5044414;28;20284;-72
2022/06/24 09:23:24;;;;;;;28.93;27.03;;;18.10;99.90;;;;;;5028200;28;20131;-72
2022/06/24 09:25:52;;;;;;;30.17;28.30;;;18.10;99.90;;;;;;5028924;28;20044;-72
2022/06/24 09:28:29;;;;;;;25.67;24.20;;;18.10;99.90;;;;;;5014201;28;20338;-73
2022/06/24 09:31:09;;;;;;;21.43;20.13;;;18.20;99.90;;;;;;5039563;28;20287;-72
2022/06/24 09:33:44;;;;;;;25.77;23.97;;;18.10;99.90;;;;;;5041575;28;20787;-72
2022/06/24 09:36:10;;;;;;;;;;;18.10;99.90;;;;;;5022863;28;20803;-72
2022/06/24 09:38:52;;;;;;;15.27;14.17;;;18.10;99.90;;;;;;5043467;28;20384;-72
2022/06/24 09:41:17;;;;;;;18.53;17.47;;;18.20;99.90;;;;;;5036181;28;20693;-73
2022/06/24 09:43:43;;;;;;;33.47;31.37;;;18.20;99.90;;;;;;5045388;28;20374;-72
2022/06/24 09:46:25;;;;;;;29.70;27.77;;;18.30;99.90;;;;;;5029162;28;20044;-72
2022/06/24 09:48:57;;;;;;;28.37;26.47;;;18.30;99.90;;;;;;5041352;28;20283;-72
2022/06/24 09:51:23;;;;;;;22.57;21.03;;;18.40;99.90;;;;;;5044636;28;20291;-72
2022/06/24 09:53:51;;;;;;;40.53;38.27;;;18.40;99.90;;;;;;5012629;28;20353;-72
2022/06/24 09:56:17;;;;;;;21.13;19.63;;;18.50;99.90;;;;;;5045451;28;20040;-72
2022/06/24 10:00:40;;;;;;;22.97;21.73;;;18.60;99.90;;;;;;5023039;28;20283;-73
2022/06/24 10:01:34;;;;;;;22.83;21.37;;;18.60;99.90;;;;;;5040818;28;20037;-72
2022/06/24 10:04:03;;;;;;;36.23;34.00;;;18.70;99.90;;;;;;5026922;28;20275;-72
2022/06/24 10:06:34;;;;;;;31.73;29.73;;;18.70;99.90;;;;;;5026471;28;20310;-72
2022/06/24 10:09:04;;;;;;;34.73;32.63;;;18.70;99.90;;;;;;5044959;28;20671;-72
2022/06/24 10:11:33;;;;;;;45.03;42.30;;;18.70;99.90;;;;;;5026138;28;20279;-72
2022/06/24 10:14:00;;;;;;;49.53;46.70;;;18.70;99.90;;;;;;5027558;28;20706;-72
2022/06/24 10:16:26;;;;;;;68.50;64.67;;;18.60;99.90;;;;;;5040462;28;20667;-73
2022/06/24 10:18:53;;;;;;;45.33;42.47;;;18.60;99.90;;;;;;5028061;28;20280;-73
2022/06/24 10:21:19;;;;;;;70.63;66.87;;;18.60;99.90;;;;;;5028443;28;20076;-73
2022/06/24 10:23:48;;;;;;;50.87;47.87;;;18.60;97.90;;;;;;5025344;28;20660;-73
2022/06/24 10:26:21;;;;;;;59.43;56.17;;;18.50;97.00;;;;;;5044359;28;20617;-73
2022/06/24 10:28:59;;;;;;;56.03;52.53;;;18.50;97.40;;;;;;5027772;28;20279;-73
2022/06/24 10:31:49;;;;;;;54.07;50.73;;;18.60;97.60;;;;;;5043137;28;20291;-73
2022/06/24 10:34:30;;;;;;;58.23;54.90;;;18.70;97.20;;;;;;5015835;28;20303;-73
2022/06/24 10:37:12;;;;;;;59.80;56.20;;;18.80;97.40;;;;;;5041736;28;20287;-73
2022/06/24 10:40:05;;;;;;;46.40;43.27;;;18.90;97.00;;;;;;5042383;28;20277;-73
2022/06/24 10:42:32;;;;;;;55.27;51.80;;;19.20;97.70;;;;;;5024689;28;20307;-73
2022/06/24 10:45:04;;;;;;;46.63;43.27;;;19.30;96.00;;;;;;5044159;28;20349;-73
2022/06/24 10:47:38;;;;;;;57.43;53.87;;;19.40;95.30;;;;;;5008403;28;20793;-73
2022/06/24 10:50:06;;;;;;;62.63;58.60;;;19.40;95.10;;;;;;4992825;28;20324;-73
2022/06/24 10:52:51;;;;;;;54.67;50.97;;;19.40;92.90;;;;;;4996669;28;20359;-72
2022/06/24 10:55:29;;;;;;;50.80;47.45;;;19.50;92.40;;;;;;4994267;28;20392;-72
2022/06/24 10:57:55;;;;;;;58.57;55.00;;;19.50;93.10;;;;;;4987680;28;20049;-72
2022/06/24 11:00:51;;;;;;;62.97;58.93;;;19.70;93.80;;;;;;5005256;28;20543;-72
2022/06/24 11:03:26;;;;;;;;;;;19.80;92.30;;;;;;5003537;28;20291;-72
2022/06/24 11:05:52;;;;;;;59.75;56.08;;;19.80;91.50;;;;;;5008999;28;20515;-72
2022/06/24 11:08:22;;;;;;;60.33;56.63;;;19.90;91.40;;;;;;5003043;28;20045;-72
2022/06/24 11:10:49;;;;;;;56.00;52.30;;;19.90;89.60;;;;;;5006584;28;20053;-73
2022/06/24 11:13:16;;;;;;;76.10;71.30;;;20.00;89.70;;;;;;4989420;28;20046;-72
2022/06/24 11:15:58;;;;;;;56.13;52.27;;;20.00;89.60;;;;;;5005060;28;20046;-72
2022/06/24 11:18:25;;;;;;;60.40;56.40;;;20.30;90.90;;;;;;5007190;28;20046;-72
2022/06/24 11:21:01;;;;;;;65.93;61.53;;;20.40;90.60;;;;;;5004977;28;20498;-72
2022/06/24 11:23:37;;;;;;;59.47;55.30;;;20.50;87.90;;;;;;4985772;28;20510;-72
2022/06/24 11:26:21;;;;;;;66.63;62.00;;;20.50;87.80;;;;;;5004333;28;20042;-72
2022/06/24 11:28:51;;;;;;;64.67;60.17;;;20.60;86.90;;;;;;4989493;28;20557;-72
2022/06/24 11:31:25;;;;;;;65.57;61.07;;;20.60;86.60;;;;;;4974455;28;20069;-72
2022/06/24 11:34:08;;;;;;;66.47;61.80;;;20.60;86.20;;;;;;5006001;28;20081;-72
2022/06/24 11:36:36;;;;;;;55.47;51.13;;;20.50;86.50;;;;;;4988837;28;20557;-72
2022/06/24 11:39:09;;;;;;;62.80;58.33;;;20.50;85.80;;;;;;5012803;28;20041;-71
2022/06/24 11:41:37;;;;;;;59.27;54.70;;;20.40;85.90;;;;;;5024814;28;20462;-71
2022/06/24 11:44:03;;;;;;;56.33;51.97;;;20.50;87.00;;;;;;5008493;28;20046;-71
2022/06/24 11:46:29;;;;;;;64.47;60.17;;;20.60;86.70;;;;;;5018077;28;20048;-71
2022/06/24 11:49:11;;;;;;;70.37;65.77;;;20.70;86.80;;;;;;4992403;28;20044;-71
2022/06/24 11:51:38;;;;;;;55.03;51.43;;;20.90;86.40;;;;;;4975299;28;20057;-71
2022/06/24 11:54:07;;;;;;;60.30;56.30;;;21.10;87.80;;;;;;4990985;28;20152;-71
2022/06/24 11:56:34;;;;;;;57.17;53.20;;;21.30;87.40;;;;;;5001735;28;20099;-72
2022/06/24 11:59:02;;;;;;;57.23;53.33;;;21.50;86.60;;;;;;4990469;28;20058;-71
2022/06/24 12:01:29;;;;;;;100.47;93.67;;;21.60;84.20;;;;;;5007604;28;20262;-72
2022/06/24 12:03:59;;;;;;;58.03;54.00;;;21.60;80.00;;;;;;4990846;28;20144;-72
2022/06/24 12:06:26;;;;;;;54.87;51.20;;;21.50;80.80;;;;;;5001728;28;20046;-72
2022/06/24 12:08:53;;;;;;;63.07;58.83;;;21.60;82.20;;;;;;5002873;28;20469;-72
2022/06/24 12:11:20;;;;;;;47.37;44.07;;;21.70;81.40;;;;;;4996861;28;20067;-72
2022/06/24 12:14:00;;;;;;;64.67;60.47;;;21.70;81.00;;;;;;4969668;28;20073;-72
2022/06/24 12:16:26;;;;;;;58.03;54.27;;;21.60;79.90;;;;;;4988398;28;20533;-72
2022/06/24 12:18:53;;;;;;;61.67;57.53;;;21.60;80.80;;;;;;5007485;28;20077;-72
2022/06/24 12:21:27;;;;;;;67.70;63.03;;;21.50;79.30;;;;;;5004233;28;20034;-72
2022/06/24 12:23:53;;;;;;;50.23;46.53;;;21.40;79.10;;;;;;5004427;28;20314;-72
2022/06/24 12:26:24;;;;;;;52.20;48.73;;;21.40;79.70;;;;;;5007938;28;20045;-72
2022/06/24 12:29:05;;;;;;;64.70;60.70;;;21.40;80.90;;;;;;4991144;28;20110;-72
2022/06/24 12:31:32;;;;;;;57.53;53.87;;;21.50;80.40;;;;;;5006462;28;20402;-72
2022/06/24 12:33:58;;;;;;;42.57;39.37;;;21.60;81.40;;;;;;4997187;28;20061;-72
2022/06/24 12:36:41;;;;;;;51.40;47.97;;;21.80;81.80;;;;;;4996792;28;20061;-72